Time;durP1;ratioP1;P1;durP2;ratioP2;P2;SDS_P1;SDS_P2;PMS_P1;PMS_P2;Temp;Humidity;BMP_temperature;BMP_pressure;BME280_temperature;BME280_humidity;BME280_pressure;Samples;Min_cycle;Max_cycle;Signal;HPM_P1;HPM_P2
2023/10/17 00:02:22;;;;;;;3.73;1.90;;;4.30;1.00;;;;;;5077754;28;20277;-81
2023/10/17 00:04:47;;;;;;;2.17;1.70;;;4.20;1.00;;;;;;5078859;28;20645;-80
2023/10/17 00:07:13;;;;;;;2.07;1.87;;;4.10;1.00;;;;;;5096878;28;20171;-80
2023/10/17 00:09:39;;;;;;;2.80;1.70;;;4.10;1.00;;;;;;5097162;28;20179;-80
2023/10/17 00:14:45;;;;;;;2.10;1.90;;;4.10;1.00;;;;;;5096841;28;20215;-81
2023/10/17 00:17:13;;;;;;;2.50;1.67;;;4.00;1.00;;;;;;5078445;28;20172;-81
2023/10/17 00:19:41;;;;;;;1.87;1.60;;;4.00;1.00;;;;;;5096801;28;20177;-82
2023/10/17 00:22:07;;;;;;;2.57;2.00;;;4.00;1.00;;;;;;5088009;28;20169;-80
2023/10/17 00:24:33;;;;;;;2.03;1.80;;;3.80;1.00;;;;;;5096530;28;20189;-81
2023/10/17 00:26:59;;;;;;;1.83;1.53;;;3.90;1.00;;;;;;5095268;28;20267;-80
2023/10/17 00:29:26;;;;;;;2.43;1.77;;;3.90;1.00;;;;;;5096384;28;20190;-80
2023/10/17 00:31:51;;;;;;;3.37;1.90;;;3.80;1.00;;;;;;5095889;28;20168;-81
2023/10/17 00:34:17;;;;;;;2.30;2.00;;;3.80;1.00;;;;;;5095491;28;20202;-80
2023/10/17 00:36:49;;;;;;;3.20;1.57;;;3.80;1.00;;;;;;5094879;28;20195;-81
2023/10/17 00:39:36;;;;;;;3.23;1.90;;;3.80;1.00;;;;;;5096527;28;20171;-80
2023/10/17 00:44:33;;;;;;;2.57;1.70;;;4.10;1.00;;;;;;5096451;28;20185;-80
2023/10/17 00:46:59;;;;;;;2.00;1.80;;;4.10;1.00;;;;;;5096749;28;20620;-81
2023/10/17 00:49:29;;;;;;;2.47;1.80;;;4.00;1.00;;;;;;5096678;28;20175;-81
2023/10/17 00:51:59;;;;;;;2.00;1.80;;;3.80;1.00;;;;;;5094444;28;20173;-81
2023/10/17 00:54:26;;;;;;;3.83;1.90;;;3.80;1.00;;;;;;5095139;28;20188;-80
2023/10/17 00:56:55;;;;;;;1.63;1.50;;;3.90;1.00;;;;;;5096458;28;20170;-81
2023/10/17 00:59:25;;;;;;;2.90;1.60;;;3.80;1.00;;;;;;5096276;28;20169;-81
2023/10/17 01:01:51;;;;;;;2.00;1.70;;;3.80;1.00;;;;;;5095882;28;20183;-80
2023/10/17 01:04:22;;;;;;;2.83;1.63;;;3.70;1.00;;;;;;5134034;22;20226;-82
2023/10/17 01:06:54;;;;;;;1.77;1.40;;;3.70;1.00;;;;;;5072960;28;20251;-81
2023/10/17 01:09:24;;;;;;;3.93;1.90;;;3.70;26.70;;;;;;5072695;28;20181;-81
2023/10/17 01:11:49;;;;;;;2.53;1.70;;;3.70;1.00;;;;;;5072123;28;20169;-81
2023/10/17 01:14:19;;;;;;;1.87;1.60;;;3.70;2.10;;;;;;5073968;28;20198;-81
2023/10/17 01:16:51;;;;;;;2.03;1.50;;;3.70;24.40;;;;;;5073807;28;20265;-81
2023/10/17 01:19:21;;;;;;;2.43;1.87;;;3.60;56.90;;;;;;5072291;28;20178;-81
2023/10/17 01:21:47;;;;;;;2.10;1.90;;;3.50;99.90;;;;;;5071986;28;20197;-81
2023/10/17 01:24:13;;;;;;;2.67;1.90;;;3.50;99.90;;;;;;5072364;28;20263;-82
2023/10/17 01:26:39;;;;;;;2.13;1.67;;;3.60;99.90;;;;;;5072504;28;20557;-81
2023/10/17 01:29:11;;;;;;;1.87;1.67;;;3.70;98.00;;;;;;5074095;28;20203;-81
2023/10/17 01:31:39;;;;;;;2.33;1.70;;;3.80;54.00;;;;;;5073130;28;20169;-81
2023/10/17 01:34:08;;;;;;;3.93;2.00;;;3.90;1.00;;;;;;5073426;28;20192;-81
2023/10/17 01:36:37;;;;;;;2.13;1.80;;;3.80;1.00;;;;;;5072296;28;20174;-81
2023/10/17 01:39:06;;;;;;;3.57;1.70;;;3.80;32.40;;;;;;5072087;28;20203;-81
2023/10/17 01:41:35;;;;;;;2.40;1.70;;;3.70;82.70;;;;;;5072670;28;20177;-81
2023/10/17 01:44:03;;;;;;;3.00;2.10;;;3.60;27.50;;;;;;5071869;28;20216;-81
2023/10/17 01:46:29;;;;;;;2.97;1.90;;;3.60;86.20;;;;;;5072194;28;20178;-81
2023/10/17 01:48:56;;;;;;;2.57;2.00;;;3.70;99.90;;;;;;5073342;28;20547;-81
2023/10/17 01:51:23;;;;;;;2.40;2.00;;;3.80;91.40;;;;;;5072906;28;20248;-81
2023/10/17 01:53:51;;;;;;;2.83;1.90;;;3.90;47.40;;;;;;5073051;28;20193;-81
2023/10/17 01:56:25;;;;;;;2.33;1.80;;;3.90;1.00;;;;;;5073156;28;20180;-81
2023/10/17 01:58:51;;;;;;;2.77;2.00;;;3.80;1.00;;;;;;5073045;28;20197;-81
2023/10/17 02:01:31;;;;;;;2.77;1.90;;;3.70;1.00;;;;;;5071103;28;20650;-81
2023/10/17 02:04:03;;;;;;;2.13;1.90;;;3.60;1.00;;;;;;5071268;28;20208;-81
2023/10/17 02:06:33;;;;;;;3.07;2.17;;;3.50;30.00;;;;;;5071687;28;20180;-81
2023/10/17 02:09:00;;;;;;;2.47;1.80;;;3.50;99.90;;;;;;5071702;28;20175;-81
2023/10/17 02:11:26;;;;;;;2.07;1.80;;;3.50;99.90;;;;;;5071238;28;20264;-81
2023/10/17 02:13:58;;;;;;;3.17;1.67;;;3.50;19.10;;;;;;5072729;28;20196;-81
2023/10/17 02:16:28;;;;;;;2.30;1.97;;;3.50;66.90;;;;;;5071874;28;20176;-79
2023/10/17 02:18:58;;;;;;;1.77;1.60;;;3.60;62.00;;;;;;5072696;28;20675;-81
2023/10/17 02:21:26;;;;;;;2.73;1.90;;;3.60;49.90;;;;;;5072426;28;20190;-81
2023/10/17 02:23:52;;;;;;;2.23;1.50;;;3.70;28.00;;;;;;5072469;28;20232;-81
2023/10/17 02:26:21;;;;;;;1.70;1.60;;;3.80;1.00;;;;;;5072900;28;20641;-81
2023/10/17 02:28:53;;;;;;;2.50;1.80;;;3.90;1.00;;;;;;5072815;28;20170;-81
2023/10/17 02:31:29;;;;;;;3.27;1.90;;;4.00;1.00;;;;;;5071300;28;20170;-81
2023/10/17 02:33:56;;;;;;;3.87;1.93;;;4.00;1.00;;;;;;5072576;28;20199;-81
2023/10/17 02:36:22;;;;;;;2.27;1.90;;;3.70;1.00;;;;;;5071091;28;20278;-81
2023/10/17 02:38:47;;;;;;;2.13;1.90;;;3.50;1.00;;;;;;5072590;28;20655;-81
2023/10/17 02:41:18;;;;;;;2.20;1.80;;;3.30;44.70;;;;;;5070878;28;20242;-81
2023/10/17 02:43:53;;;;;;;3.10;1.87;;;3.30;99.90;;;;;;5072350;28;20204;-81
2023/10/17 02:46:20;;;;;;;2.47;2.00;;;3.30;99.90;;;;;;5072523;28;20169;-81
2023/10/17 02:48:48;;;;;;;3.60;2.37;;;3.20;89.00;;;;;;5071092;28;20186;-81
2023/10/17 02:53:50;;;;;;;2.20;2.00;;;3.30;99.90;;;;;;5072626;28;20195;-81
2023/10/17 02:56:20;;;;;;;4.53;2.30;;;3.30;21.80;;;;;;5072148;28;20165;-81
2023/10/17 02:59:10;;;;;;;3.03;2.20;;;3.20;80.70;;;;;;5071136;28;20177;-81
2023/10/17 03:01:38;;;;;;;4.27;2.17;;;3.10;99.90;;;;;;5071668;28;20172;-81
2023/10/17 03:04:09;;;;;;;4.37;2.33;;;3.00;99.90;;;;;;5070812;28;20262;-81
2023/10/17 03:06:40;;;;;;;2.57;2.27;;;2.90;99.90;;;;;;5071140;28;20537;-81
2023/10/17 03:11:50;;;;;;;3.23;2.40;;;2.90;99.90;;;;;;5071786;28;20176;-81
2023/10/17 03:14:22;;;;;;;4.73;2.90;;;2.80;99.90;;;;;;5071257;28;20692;-81
2023/10/17 03:16:54;;;;;;;3.10;2.37;;;2.80;99.90;;;;;;5074876;28;20222;-81
2023/10/17 03:19:25;;;;;;;2.97;2.60;;;2.80;99.90;;;;;;5074960;28;20188;-81
2023/10/17 03:21:53;;;;;;;3.60;2.60;;;2.80;99.90;;;;;;5075774;28;20185;-81
2023/10/17 03:24:19;;;;;;;3.93;2.60;;;2.70;99.90;;;;;;5075725;28;20265;-82
2023/10/17 03:26:54;;;;;;;2.50;2.10;;;2.70;99.90;;;;;;5076166;28;20179;-81
2023/10/17 03:29:23;;;;;;;2.77;2.33;;;2.70;99.90;;;;;;5075179;28;20194;-81
2023/10/17 03:31:58;;;;;;;3.07;2.20;;;2.70;99.90;;;;;;5075159;28;20161;-81
2023/10/17 03:34:35;;;;;;;3.03;2.10;;;2.80;99.90;;;;;;5075675;28;20279;-81
2023/10/17 03:39:53;;;;;;;2.40;2.10;;;3.00;99.90;;;;;;5076073;28;20184;-82
2023/10/17 03:45:24;;;;;;;3.03;1.97;;;3.00;65.60;;;;;;5075754;28;20207;-81
2023/10/17 03:47:53;;;;;;;3.17;2.40;;;2.90;10.50;;;;;;5075997;28;20175;-82
2023/10/17 03:53:15;;;;;;;2.20;2.00;;;3.00;26.30;;;;;;5075266;28;20208;-81
2023/10/17 03:55:51;;;;;;;2.20;2.00;;;3.00;93.70;;;;;;5075380;28;20180;-81
2023/10/17 04:00:46;;;;;;;3.83;2.53;;;2.90;1.00;;;;;;5075182;28;20234;-81
2023/10/17 04:03:22;;;;;;;3.07;1.93;;;3.00;15.70;;;;;;5073599;28;20630;-81
2023/10/17 04:05:50;;;;;;;4.17;2.40;;;3.10;26.80;;;;;;5074963;28;20640;-81
2023/10/17 04:08:25;;;;;;;7.10;3.00;;;2.90;1.00;;;;;;5073651;28;20204;-81
2023/10/17 04:11:07;;;;;;;4.30;2.63;;;2.90;93.70;;;;;;5075307;28;20176;-81
2023/10/17 04:13:37;;;;;;;7.60;2.60;;;2.80;99.90;;;;;;5074888;28;20185;-81
2023/10/17 04:16:09;;;;;;;3.37;2.80;;;2.70;99.90;;;;;;5074022;28;20653;-81
2023/10/17 04:18:37;;;;;;;6.70;2.90;;;2.70;99.90;;;;;;5073734;28;20172;-81
2023/10/17 04:21:26;;;;;;;4.67;2.80;;;2.70;99.90;;;;;;5073339;28;20173;-81
2023/10/17 04:23:55;;;;;;;3.30;2.73;;;2.70;99.90;;;;;;5073692;28;20212;-81
2023/10/17 04:26:27;;;;;;;4.27;3.00;;;2.70;99.90;;;;;;5073325;28;20671;-81
2023/10/17 04:29:00;;;;;;;9.00;2.77;;;2.70;99.90;;;;;;5074974;28;20176;-82
2023/10/17 04:31:28;;;;;;;3.83;2.50;;;2.60;99.90;;;;;;5074424;28;20176;-82
2023/10/17 04:34:08;;;;;;;3.60;2.37;;;2.60;99.90;;;;;;5073596;28;20196;-81
2023/10/17 04:36:37;;;;;;;4.53;2.50;;;2.70;99.90;;;;;;5073618;28;20176;-81
2023/10/17 04:39:25;;;;;;;3.27;2.80;;;2.70;99.90;;;;;;5073353;28;20181;-81
2023/10/17 04:44:34;;;;;;;3.60;2.40;;;2.90;99.90;;;;;;5074376;28;20197;-81
2023/10/17 04:49:35;;;;;;;3.77;2.80;;;3.00;99.90;;;;;;5074472;28;20176;-81
2023/10/17 04:52:16;;;;;;;3.90;2.77;;;2.90;99.90;;;;;;5072534;28;20201;-82
2023/10/17 04:54:42;;;;;;;4.60;3.20;;;3.00;99.90;;;;;;5073340;28;20189;-81
2023/10/17 04:57:09;;;;;;;3.20;2.90;;;2.90;99.90;;;;;;5074369;28;20709;-81
2023/10/17 04:59:51;;;;;;;3.17;2.60;;;2.90;99.90;;;;;;5073134;28;20608;-81
2023/10/17 06:18:32;;;;;;;3.50;2.90;;;3.00;99.90;;;;;;5072724;28;20218;-82
2023/10/17 06:21:07;;;;;;;3.80;2.80;;;3.10;99.90;;;;;;5071024;28;20562;-79
2023/10/17 06:34:14;;;;;;;3.43;2.67;;;3.30;99.90;;;;;;5072758;28;20309;-83
2023/10/17 06:36:41;;;;;;;3.00;2.70;;;3.30;99.90;;;;;;5071459;28;20183;-82
2023/10/17 06:39:16;;;;;;;3.80;2.77;;;3.30;99.90;;;;;;5071347;28;20173;-82
2023/10/17 06:41:44;;;;;;;3.90;3.20;;;3.20;99.90;;;;;;5072194;28;20184;-84
2023/10/17 06:44:10;;;;;;;3.53;2.87;;;3.20;99.90;;;;;;5071021;28;20296;-82
2023/10/17 06:46:48;;;;;;;4.23;3.17;;;3.20;99.90;;;;;;5072260;28;20226;-82
2023/10/17 06:54:41;;;;;;;4.27;3.37;;;3.10;99.90;;;;;;5072527;28;20195;-82
2023/10/17 06:57:19;;;;;;;4.47;3.33;;;3.00;99.90;;;;;;5071051;28;20314;-84
2023/10/17 06:59:52;;;;;;;5.50;3.30;;;3.10;99.90;;;;;;5071343;28;20179;-83
2023/10/17 07:02:27;;;;;;;4.95;3.70;;;3.20;99.90;;;;;;5071931;28;20179;-83
2023/10/17 07:04:55;;;;;;;4.20;3.40;;;3.20;99.90;;;;;;5101213;22;20305;-82
2023/10/17 07:07:22;;;;;;;6.77;3.53;;;3.40;99.90;;;;;;5052425;28;20209;-82
2023/10/17 07:09:52;;;;;;;4.07;3.50;;;3.40;99.90;;;;;;5053120;28;20211;-80
2023/10/17 07:12:20;;;;;;;6.27;3.50;;;3.40;99.90;;;;;;5053618;28;20215;-80
2023/10/17 07:14:51;;;;;;;5.03;3.37;;;4.50;99.90;;;;;;5035694;28;20189;-79
2023/10/17 07:17:25;;;;;;;3.17;2.83;;;5.50;99.90;;;;;;5053075;28;20192;-80
2023/10/17 07:19:59;;;;;;;4.17;2.93;;;6.30;99.90;;;;;;5052930;28;20179;-79
2023/10/17 07:22:25;;;;;;;3.40;3.10;;;6.70;99.90;;;;;;5034872;28;20171;-80
2023/10/17 07:24:52;;;;;;;5.03;3.40;;;6.90;37.40;;;;;;5053256;28;20285;-80
2023/10/17 07:27:27;;;;;;;4.57;3.17;;;6.30;1.00;;;;;;5036134;28;20199;-81
2023/10/17 07:29:58;;;;;;;4.03;3.50;;;5.70;1.00;;;;;;5053229;28;20180;-80
2023/10/17 07:32:44;;;;;;;4.43;3.33;;;5.10;45.60;;;;;;5035720;28;20253;-80
2023/10/17 07:35:10;;;;;;;6.20;5.60;;;4.60;99.90;;;;;;5054480;28;20185;-81
2023/10/17 07:37:48;;;;;;;4.63;3.97;;;4.40;99.90;;;;;;5037045;28;20170;-80
2023/10/17 07:42:42;;;;;;;9.57;5.93;;;4.20;99.90;;;;;;5053647;28;20197;-80
2023/10/17 07:45:14;;;;;;;3.93;3.43;;;4.20;99.90;;;;;;5053984;28;20194;-80
2023/10/17 07:47:51;;;;;;;3.70;3.40;;;4.10;99.90;;;;;;5036223;28;20171;-80
2023/10/17 07:50:17;;;;;;;4.50;3.40;;;4.20;99.90;;;;;;5035587;28;20174;-80
2023/10/17 07:52:50;;;;;;;5.47;4.33;;;4.20;99.90;;;;;;5035427;28;20174;-80
2023/10/17 07:57:57;;;;;;;3.60;3.30;;;4.30;99.90;;;;;;5053431;28;20773;-80
2023/10/17 08:00:26;;;;;;;;;;;;;;;;;;;;;
2023/10/17 08:02:52;;;;;;;4.43;3.50;;;4.30;99.90;;;;;;5055675;28;20264;-80
2023/10/17 08:05:23;;;;;;;4.10;3.60;;;4.20;99.90;;;;;;5055926;28;20217;-80
2023/10/17 08:07:49;;;;;;;4.50;3.77;;;4.20;99.90;;;;;;5056444;28;20273;-80
2023/10/17 08:10:29;;;;;;;4.77;3.80;;;4.20;99.90;;;;;;5038440;28;20555;-80
2023/10/17 08:12:57;;;;;;;5.33;3.80;;;4.30;99.90;;;;;;5037810;28;20180;-80
2023/10/17 08:15:29;;;;;;;5.73;4.30;;;4.30;99.90;;;;;;5056027;28;20174;-81
2023/10/17 08:17:58;;;;;;;5.67;4.13;;;4.30;99.90;;;;;;5056053;28;20166;-80
2023/10/17 08:23:09;;;;;;;6.90;4.60;;;4.20;99.90;;;;;;5055576;28;20224;-80
2023/10/17 08:25:52;;;;;;;5.67;4.67;;;4.50;99.90;;;;;;5056098;28;20175;-80
2023/10/17 08:28:33;;;;;;;5.73;4.87;;;4.40;99.90;;;;;;5055561;28;20166;-80
2023/10/17 08:31:18;;;;;;;6.63;5.60;;;4.50;99.90;;;;;;5055192;28;20173;-81
2023/10/17 08:36:41;;;;;;;6.17;5.00;;;4.90;99.90;;;;;;5055725;28;20251;-80
2023/10/17 08:41:58;;;;;;;8.20;6.00;;;5.00;99.90;;;;;;5055167;28;20176;-82
2023/10/17 08:44:31;;;;;;;7.07;5.67;;;4.90;99.90;;;;;;5055686;28;20210;-82
2023/10/17 08:46:57;;;;;;;7.43;6.63;;;5.10;99.90;;;;;;5037706;28;20170;-80
2023/10/17 08:49:24;;;;;;;6.67;6.00;;;5.20;99.90;;;;;;5055335;28;20355;-80
2023/10/17 08:51:50;;;;;;;7.67;6.87;;;5.20;99.90;;;;;;5036603;28;20269;-81
2023/10/17 08:54:19;;;;;;;7.40;5.13;;;5.30;99.90;;;;;;5055048;28;20281;-82
2023/10/17 08:56:50;;;;;;;9.90;8.10;;;5.50;99.90;;;;;;5055151;28;20171;-81
2023/10/17 08:59:15;;;;;;;7.03;6.20;;;5.60;99.90;;;;;;5037293;28;20615;-80
2023/10/17 09:02:14;;;;;;;6.30;4.90;;;5.80;99.90;;;;;;5036283;28;20697;-80
2023/10/17 09:04:42;;;;;;;5.43;4.87;;;6.00;99.90;;;;;;5036934;28;20215;-80
2023/10/17 09:07:09;;;;;;;6.63;5.30;;;6.00;99.90;;;;;;5054788;28;20228;-82
2023/10/17 09:09:34;;;;;;;5.20;4.70;;;6.00;99.90;;;;;;5055033;28;20194;-81
2023/10/17 09:12:01;;;;;;;7.13;5.03;;;6.10;99.90;;;;;;5035568;28;20171;-82
2023/10/17 09:14:29;;;;;;;5.57;4.90;;;6.10;99.90;;;;;;5054147;28;20253;-81
2023/10/17 09:17:13;;;;;;;5.77;5.13;;;6.00;99.90;;;;;;5036919;28;20177;-80
2023/10/17 09:19:47;;;;;;;8.43;5.50;;;6.20;99.90;;;;;;5054676;28;20185;-80
2023/10/17 09:22:15;;;;;;;6.33;5.20;;;6.30;99.90;;;;;;5054451;28;20545;-80
2023/10/17 09:24:45;;;;;;;5.70;4.80;;;6.40;99.90;;;;;;5036421;28;20209;-81
2023/10/17 09:27:14;;;;;;;5.13;4.60;;;6.40;99.90;;;;;;5033964;28;20233;-80
2023/10/17 09:29:45;;;;;;;5.37;4.30;;;6.60;99.90;;;;;;5051065;28;20237;-80
2023/10/17 09:32:11;;;;;;;8.67;7.77;;;6.70;99.90;;;;;;5054466;28;20251;-80
2023/10/17 09:34:38;;;;;;;12.20;11.13;;;6.90;99.90;;;;;;5035955;28;20307;-80
2023/10/17 09:37:05;;;;;;;20.33;18.33;;;7.00;99.90;;;;;;5054232;28;20181;-80
2023/10/17 09:39:39;;;;;;;5.60;4.83;;;7.20;99.90;;;;;;5036146;28;20752;-82
2023/10/17 09:42:05;;;;;;;5.23;4.33;;;7.40;99.90;;;;;;5047056;28;20184;-80
2023/10/17 09:44:32;;;;;;;4.70;4.03;;;7.50;99.90;;;;;;5049220;28;20266;-80
2023/10/17 09:47:01;;;;;;;4.90;4.07;;;7.60;99.90;;;;;;5054380;28;20169;-80
2023/10/17 09:49:40;;;;;;;5.13;3.90;;;7.70;99.90;;;;;;5053314;28;20174;-81
2023/10/17 09:52:09;;;;;;;5.37;4.37;;;7.80;99.90;;;;;;5054221;28;20166;-80
2023/10/17 09:54:40;;;;;;;9.00;6.50;;;7.90;99.90;;;;;;5054201;28;20197;-80
2023/10/17 09:57:12;;;;;;;5.70;4.67;;;8.00;99.90;;;;;;5054769;28;20194;-80
2023/10/17 09:59:46;;;;;;;4.50;3.20;;;8.20;99.90;;;;;;5054675;28;20649;-80
2023/10/17 10:02:17;;;;;;;4.33;3.87;;;8.30;99.90;;;;;;5053864;28;20181;-81
2023/10/17 10:04:43;;;;;;;6.20;4.13;;;8.40;99.90;;;;;;5053730;28;20220;-81
2023/10/17 10:07:22;;;;;;;5.83;4.40;;;8.50;99.90;;;;;;5052479;28;20657;-80
2023/10/17 10:09:48;;;;;;;5.20;4.10;;;8.60;99.90;;;;;;5054096;28;20171;-81
2023/10/17 10:12:14;;;;;;;4.17;3.77;;;8.70;99.90;;;;;;5053283;28;20187;-80
2023/10/17 10:14:42;;;;;;;5.73;4.20;;;8.70;63.00;;;;;;5052265;28;20218;-80
2023/10/17 10:17:09;;;;;;;4.07;3.30;;;8.90;99.90;;;;;;5053222;28;20206;-81
2023/10/17 10:19:40;;;;;;;4.10;3.20;;;9.10;1.00;;;;;;5052727;28;20171;-80
2023/10/17 10:22:07;;;;;;;4.67;3.00;;;9.30;1.00;;;;;;5051699;28;20187;-80
2023/10/17 10:24:36;;;;;;;4.50;3.20;;;9.40;1.00;;;;;;5053308;28;20258;-80
2023/10/17 10:27:14;;;;;;;3.30;2.70;;;9.40;1.00;;;;;;5054677;28;20256;-80
2023/10/17 10:29:40;;;;;;;3.60;2.87;;;9.60;1.00;;;;;;5054288;28;20664;-80
2023/10/17 10:32:08;;;;;;;3.57;3.20;;;9.60;99.90;;;;;;5052734;28;20177;-80
2023/10/17 10:34:35;;;;;;;4.50;2.90;;;9.70;1.00;;;;;;5054635;28;20200;-80
2023/10/17 10:37:03;;;;;;;3.83;3.00;;;10.00;1.00;;;;;;5054505;28;20165;-81
2023/10/17 10:39:30;;;;;;;3.30;2.93;;;10.30;1.00;;;;;;5053244;28;20562;-81
2023/10/17 10:42:00;;;;;;;3.30;2.90;;;10.50;1.00;;;;;;5053661;28;20166;-80
2023/10/17 10:44:27;;;;;;;2.87;2.67;;;10.60;1.00;;;;;;5052548;28;20201;-80
2023/10/17 10:46:56;;;;;;;4.27;3.30;;;10.70;99.90;;;;;;5051232;28;20554;-82
2023/10/17 10:49:28;;;;;;;3.00;2.63;;;10.90;1.00;;;;;;5052229;28;20173;-82
2023/10/17 10:51:57;;;;;;;5.63;2.80;;;11.00;1.00;;;;;;5051839;28;20177;-83
2023/10/17 10:54:25;;;;;;;2.80;2.50;;;11.00;25.60;;;;;;5051813;28;20186;-82
2023/10/17 10:56:51;;;;;;;3.17;2.47;;;11.00;90.00;;;;;;5052191;28;20180;-83
2023/10/17 10:59:21;;;;;;;3.80;2.60;;;10.90;99.90;;;;;;5050871;28;20178;-83
2023/10/17 11:01:50;;;;;;;3.10;2.63;;;10.90;1.00;;;;;;5050272;28;20235;-82
2023/10/17 11:04:16;;;;;;;3.10;2.50;;;10.80;99.90;;;;;;5051790;28;20201;-82
2023/10/17 11:06:41;;;;;;;3.67;3.00;;;10.90;1.00;;;;;;5050691;28;20550;-83
2023/10/17 11:09:09;;;;;;;3.43;2.70;;;10.90;1.00;;;;;;5051997;28;20227;-82
2023/10/17 11:11:49;;;;;;;3.23;2.60;;;11.00;99.90;;;;;;5051383;28;20710;-83
2023/10/17 11:14:19;;;;;;;3.30;2.30;;;11.00;1.00;;;;;;5052145;28;20201;-83
2023/10/17 11:16:50;;;;;;;3.33;2.87;;;10.80;1.00;;;;;;5051954;28;20261;-83
2023/10/17 11:19:19;;;;;;;5.43;3.70;;;10.80;1.00;;;;;;5051828;28;20253;-83
2023/10/17 11:21:52;;;;;;;6.20;4.20;;;10.70;99.90;;;;;;5050370;28;20170;-83
2023/10/17 11:24:19;;;;;;;3.77;3.00;;;10.60;1.00;;;;;;5051964;28;20201;-85
2023/10/17 11:26:45;;;;;;;4.60;3.00;;;10.80;99.90;;;;;;5052037;28;20638;-83
2023/10/17 11:29:10;;;;;;;4.13;3.00;;;10.80;1.00;;;;;;5052026;28;20323;-82
2023/10/17 11:31:36;;;;;;;3.30;3.00;;;11.00;1.00;;;;;;5051224;28;20174;-83
2023/10/17 11:34:12;;;;;;;2.97;2.67;;;11.40;99.90;;;;;;5051583;28;20693;-85
2023/10/17 11:36:52;;;;;;;3.03;2.70;;;12.00;99.90;;;;;;5052985;28;20174;-83
2023/10/17 11:39:24;;;;;;;3.43;2.37;;;12.40;1.00;;;;;;5055705;28;20177;-82
2023/10/17 11:41:55;;;;;;;4.03;2.43;;;12.70;99.90;;;;;;5053956;28;20668;-82
2023/10/17 11:44:26;;;;;;;3.23;2.50;;;13.10;23.40;;;;;;5054304;28;20610;-85
2023/10/17 11:46:58;;;;;;;10.93;9.90;;;13.30;1.00;;;;;;5054488;28;20178;-83
2023/10/17 11:49:27;;;;;;;6.00;4.17;;;13.50;1.00;;;;;;5055609;28;20172;-83
2023/10/17 11:52:14;;;;;;;2.40;2.13;;;14.00;1.00;;;;;;5055311;28;20173;-83
2023/10/17 11:55:11;;;;;;;4.10;2.10;;;14.30;1.00;;;;;;5055107;28;20277;-82
2023/10/17 11:57:37;;;;;;;11.57;10.10;;;14.70;1.00;;;;;;5054223;28;20223;-83
2023/10/17 12:02:47;;;;;;;3.90;2.30;;;15.10;99.90;;;;;;5054938;28;20185;-82
2023/10/17 12:05:20;;;;;;;5.17;3.30;;;15.30;1.00;;;;;;5055237;28;20288;-83
2023/10/17 12:07:49;;;;;;;3.43;2.60;;;15.60;1.00;;;;;;5054111;28;20173;-82
2023/10/17 12:10:15;;;;;;;2.97;2.53;;;15.60;1.00;;;;;;5043341;28;20182;-81
2023/10/17 12:12:41;;;;;;;4.30;3.23;;;15.80;1.00;;;;;;5053474;28;20180;-83
2023/10/17 12:15:07;;;;;;;7.50;6.30;;;15.70;1.00;;;;;;5032652;28;20190;-83
2023/10/17 12:17:32;;;;;;;4.93;3.57;;;15.80;1.00;;;;;;5054875;28;20173;-83
2023/10/17 12:19:58;;;;;;;4.10;2.40;;;15.80;1.00;;;;;;5028946;28;20170;-83
2023/10/17 12:22:24;;;;;;;2.90;2.70;;;16.00;1.00;;;;;;5036679;28;20626;-83
2023/10/17 12:24:50;;;;;;;5.13;4.30;;;16.10;1.00;;;;;;5054490;28;20205;-82
2023/10/17 12:27:15;;;;;;;3.50;2.83;;;16.60;1.00;;;;;;5054574;28;20184;-83
2023/10/17 12:29:41;;;;;;;3.83;2.30;;;16.90;1.00;;;;;;5036776;28;20173;-82
2023/10/17 12:32:10;;;;;;;4.23;2.67;;;17.10;1.00;;;;;;5054003;28;20232;-82
2023/10/17 12:34:42;;;;;;;5.47;4.33;;;17.40;1.00;;;;;;5036806;28;20588;-83
2023/10/17 12:37:12;;;;;;;4.00;2.60;;;17.70;99.90;;;;;;5054628;28;20178;-84
2023/10/17 12:39:42;;;;;;;3.77;2.50;;;17.30;99.90;;;;;;5048214;28;20243;-83
2023/10/17 12:42:08;;;;;;;3.33;2.70;;;17.00;99.90;;;;;;5046226;28;20235;-83
2023/10/17 12:44:33;;;;;;;3.43;2.60;;;17.20;99.90;;;;;;5054471;28;20213;-82
2023/10/17 12:46:59;;;;;;;4.10;2.40;;;17.30;99.90;;;;;;5054448;28;20174;-82
2023/10/17 12:49:25;;;;;;;4.37;3.97;;;16.90;99.90;;;;;;5054494;28;20249;-82
2023/10/17 12:51:52;;;;;;;3.00;2.70;;;17.10;99.90;;;;;;5054241;28;20173;-82
2023/10/17 12:54:18;;;;;;;3.47;2.60;;;17.50;99.90;;;;;;5054808;28;20186;-82
2023/10/17 12:56:43;;;;;;;4.03;2.50;;;17.90;99.90;;;;;;5054603;28;20170;-82
2023/10/17 12:59:12;;;;;;;3.67;2.47;;;18.20;99.90;;;;;;5054557;28;20197;-82
2023/10/17 13:01:38;;;;;;;3.83;2.70;;;18.40;99.90;;;;;;5050786;28;20186;-82
2023/10/17 13:04:04;;;;;;;2.97;2.60;;;18.60;99.90;;;;;;5089469;22;20238;-83
2023/10/17 13:06:29;;;;;;;2.60;2.40;;;18.10;99.90;;;;;;5033842;28;20210;-83
2023/10/17 13:08:58;;;;;;;2.50;2.27;;;18.10;99.90;;;;;;5031310;28;20252;-82
2023/10/17 13:11:24;;;;;;;2.87;2.37;;;18.30;99.90;;;;;;5037191;28;20181;-83
2023/10/17 13:13:50;;;;;;;3.13;2.40;;;17.80;99.90;;;;;;5034580;28;20202;-82
2023/10/17 13:16:16;;;;;;;2.60;2.30;;;18.30;99.90;;;;;;5024814;28;20178;-83
2023/10/17 13:18:41;;;;;;;2.83;1.90;;;18.60;99.90;;;;;;5016837;28;20190;-82
2023/10/17 13:21:12;;;;;;;2.27;1.90;;;18.60;99.90;;;;;;5026011;28;20257;-83
2023/10/17 13:23:39;;;;;;;2.97;2.10;;;18.50;99.90;;;;;;5032473;28;20206;-83
2023/10/17 13:26:11;;;;;;;2.60;2.20;;;18.70;99.90;;;;;;5033691;28;20178;-83
2023/10/17 13:28:37;;;;;;;2.17;1.98;;;18.90;99.90;;;;;;5026522;28;20209;-83
2023/10/17 13:31:16;;;;;;;4.80;2.20;;;18.90;99.90;;;;;;5024797;28;20182;-83
2023/10/17 13:33:43;;;;;;;3.90;2.17;;;19.20;99.90;;;;;;5025362;28;20244;-83
2023/10/17 13:36:16;;;;;;;2.40;2.20;;;19.10;99.90;;;;;;5023018;28;20186;-83
2023/10/17 13:38:42;;;;;;;2.63;2.10;;;18.60;99.90;;;;;;5023970;28;20187;-82
2023/10/17 13:41:11;;;;;;;2.42;2.10;;;18.50;99.90;;;;;;5025441;28;20185;-83
2023/10/17 13:43:38;;;;;;;2.42;2.10;;;18.70;99.90;;;;;;5026146;28;20213;-83
2023/10/17 13:46:14;;;;;;;2.97;2.20;;;18.80;99.90;;;;;;5031495;28;20174;-83
2023/10/17 13:48:48;;;;;;;3.00;2.20;;;18.70;99.90;;;;;;5032495;28;20178;-82
2023/10/17 13:51:15;;;;;;;2.80;2.25;;;18.90;99.90;;;;;;5027337;28;20183;-82
2023/10/17 13:53:43;;;;;;;3.33;2.20;;;18.40;99.90;;;;;;5023943;28;20214;-82
2023/10/17 13:56:18;;;;;;;4.70;2.00;;;18.30;99.90;;;;;;5026220;28;20186;-82
2023/10/17 13:58:46;;;;;;;2.47;2.00;;;18.60;99.90;;;;;;5023715;28;20678;-82
2023/10/17 14:01:28;;;;;;;2.58;1.88;;;19.00;99.90;;;;;;5020699;28;20248;-82
2023/10/17 14:03:55;;;;;;;2.17;1.97;;;19.10;99.90;;;;;;5030059;28;20214;-82
2023/10/17 14:06:21;;;;;;;2.72;2.22;;;18.70;99.90;;;;;;5020855;28;20183;-82
2023/10/17 14:08:47;;;;;;;2.15;1.95;;;18.70;99.90;;;;;;5024196;28;20182;-82
2023/10/17 14:11:17;;;;;;;6.27;5.67;;;18.40;99.90;;;;;;5025219;28;20186;-82
2023/10/17 14:13:45;;;;;;;5.13;3.07;;;17.80;99.90;;;;;;5032559;28;20277;-82
2023/10/17 14:16:10;;;;;;;2.93;2.73;;;17.70;99.90;;;;;;5020835;28;20178;-82
2023/10/17 14:18:52;;;;;;;2.97;1.57;;;17.40;99.90;;;;;;5021098;28;20716;-82
2023/10/17 14:23:57;;;;;;;2.00;1.50;;;17.90;99.90;;;;;;5023471;28;20210;-82
2023/10/17 14:26:24;;;;;;;11.23;9.37;;;18.30;99.90;;;;;;5021862;28;20228;-82
2023/10/17 14:28:50;;;;;;;6.17;5.03;;;18.10;99.90;;;;;;5022803;28;20174;-83
2023/10/17 14:31:15;;;;;;;2.53;1.73;;;17.50;99.90;;;;;;5023728;28;20178;-82
2023/10/17 14:33:41;;;;;;;5.83;4.80;;;16.70;99.90;;;;;;5033270;28;20170;-82
2023/10/17 14:36:09;;;;;;;3.37;1.70;;;16.50;99.90;;;;;;5029076;28;20719;-82
2023/10/17 14:38:35;;;;;;;2.87;2.40;;;15.60;99.90;;;;;;5021832;28;20207;-81
2023/10/17 14:41:11;;;;;;;1.93;1.73;;;15.40;99.90;;;;;;5024773;28;20240;-82
2023/10/17 14:43:49;;;;;;;2.17;1.70;;;15.20;99.90;;;;;;5033171;28;20210;-81
2023/10/17 14:46:16;;;;;;;6.13;4.27;;;14.90;99.90;;;;;;5024022;28;20210;-82
2023/10/17 14:48:44;;;;;;;1.73;1.43;;;14.60;99.90;;;;;;5032229;28;20248;-83
2023/10/17 14:51:12;;;;;;;1.67;1.47;;;14.30;99.90;;;;;;5021111;28;20183;-83
2023/10/17 14:53:42;;;;;;;1.60;1.40;;;14.20;1.00;;;;;;5030152;28;20182;-79
2023/10/17 14:56:09;;;;;;;1.90;1.70;;;13.90;1.00;;;;;;5021863;28;20614;-83
2023/10/17 14:58:49;;;;;;;3.83;2.73;;;13.70;1.00;;;;;;5030499;28;20265;-82
2023/10/17 15:01:16;;;;;;;5.90;5.27;;;13.50;1.00;;;;;;5023116;28;20240;-83
2023/10/17 15:03:42;;;;;;;2.03;1.80;;;13.20;1.00;;;;;;5022745;28;20233;-82
2023/10/17 15:06:09;;;;;;;12.83;8.87;;;13.10;1.00;;;;;;5021964;28;20274;-82
2023/10/17 15:08:35;;;;;;;8.03;5.03;;;13.10;1.00;;;;;;5020548;28;20183;-80
2023/10/17 15:11:05;;;;;;;13.40;9.30;;;12.90;1.00;;;;;;5024800;28;20177;-82
2023/10/17 15:13:32;;;;;;;12.00;7.37;;;12.80;1.00;;;;;;5029978;28;20182;-82
2023/10/17 15:15:58;;;;;;;27.17;17.60;;;12.70;1.00;;;;;;5027799;28;20692;-82
2023/10/17 15:18:24;;;;;;;2.20;1.73;;;12.70;1.00;;;;;;5028892;28;20275;-82
2023/10/17 15:20:49;;;;;;;3.60;2.00;;;12.70;1.00;;;;;;5025073;28;20273;-82
2023/10/17 15:23:15;;;;;;;4.70;2.93;;;12.50;1.00;;;;;;5024874;28;20241;-82
2023/10/17 15:25:41;;;;;;;4.03;2.97;;;12.50;1.00;;;;;;5026193;28;20203;-82
2023/10/17 15:28:06;;;;;;;1.97;1.60;;;12.40;1.00;;;;;;5029302;28;20554;-82
2023/10/17 15:30:34;;;;;;;2.20;1.70;;;12.20;1.00;;;;;;5035166;28;20598;-80